Skip Navigation LinksHome page > Weather > Current weather Skip Navigation Links

Current Weather

Indira Gandhi Intl Apt, New Delhi, India

For information only: do not use for flight planning or navigation.
Latest weather
Observation time Wednesday, February 20, 2019 11:30 PM IST
Local time Thursday, February 21, 2019 12:07 AM IST
Flight conditions Instrument Meteorological Conditions
Winds
Wind direction East (90°)
Wind speed 8 mph
Visibility 1.9 mi.
Present weather mist
Sky condition
Ceiling unlimited
Cloud layer few clouds 3,500 ft.
Cloud layer scattered clouds 10,000 ft.
Temperature 63°F
Dewpoint 59°F
Altimeter 30.06 in.Hg
Derived measurements
Relative humidity 88%
Density altitude 1075 ft.
Remarks
No significant changes expected in the next two hours.
METAR VIDP 201800Z 09007KT 3000 BR FEW035 SCT100 17/15 Q1018 NOSIG

Settings

Location code

InnerDrive.Weather 4.0.6770.0 Release CLR 4.0.30319.42000
Copyright ©2018 Inner Drive Technology. All rights reserved. Portions Copyright ©1986-2018 David Braverman.

Find weather

Site navigation


Skip Navigation Links

Place info

Page info

PayPal - The safer, easier way to pay online!

Return home.

Copyright ©2019 Inner Drive Technology. Purveyors of fine, hand-crafted computer software. Page printed 2019-02-20T18:37:52 UTC.